Hauptseite
METAR-TAF:

METAR-TAF

Flughäfen :

Longyearbyen, Norwegen

Flughafen Longyearbyen

Breite: 78-15N, Länge: 015-28E, Höhe: 2 m

Beobachtung

Neuester Wetterbericht von vor 22 Minuten, um 11:50 UTC
Wind 11 kt aus West/Südwest
Temperatur 4°C
Luftfeuchtigkeit 70%
Luftdruck 1012 hPa
Sichtweite 10 km oder mehr
Aufgelockert bewölkt in der Höhe von 2000 ft
Durchbrochene Bewölkung in der Höhe von 3000 ft

METAR: ENSB 221150Z 25011KT 9999 SCT020 BKN030 04/M01 Q1012 NOSIG RMK WIND 1400FT 23013KT

Zeit: 14:12 (12:12 UTC)

Prognose

Gültige Prognose vom 22 um 12 UTC bis 23 um 12 UTC
Wind 8 kt aus West/Südwest
Sichtweite 10 km oder mehr
Aufgelockert bewölkt in der Höhe von 1500 ft
Durchbrochene Bewölkung in der Höhe von 2500 ft

TAF: ENSB 2212/2312 25008KT 9999 SCT015 BKN025

Wetterbeobachtungen und Prognosen von mehr als 4000 Flughäfen (METAR und TAF Bericht).

Die verfügbaren Stationen werden durch gelbe und rote Markierungen auf der Karte dargestellt.

Führen Sie die Maus auf sie, um den Namen der Station zu sehen.

Darauf klicken, um die Beobachtung von Wetterbeobachtungen und Prognosen zu sehen.

Um die Karte zu ändern : klicken Sie auf den grünen Tasten mit einem schwarzen Kreuz Zum Vergrößern, auf den grünen Button mit einem Gedankenstrich zu verkleinern, oder auf die grünen Pfeile für benachbarte Karten.


METAR-TAF: